createdAt,value
2022-12-03T00:00:49.913Z,94.60
2022-12-03T00:03:20.505Z,94.60
2022-12-03T00:05:50.455Z,94.50
2022-12-03T00:08:20.899Z,94.40
2022-12-03T00:10:51.361Z,94.30
2022-12-03T00:13:21.856Z,94.30
2022-12-03T00:15:52.312Z,94.30
2022-12-03T00:18:22.872Z,94.20
2022-12-03T00:20:53.256Z,94.20
2022-12-03T00:23:23.795Z,94.30
2022-12-03T00:25:54.252Z,94.20
2022-12-03T00:28:24.712Z,94.20
2022-12-03T00:30:56.296Z,94.20
2022-12-03T00:33:26.871Z,94.20
2022-12-03T00:35:57.316Z,94.20
2022-12-03T00:38:27.969Z,94.30
2022-12-03T00:40:58.470Z,94.30
2022-12-03T00:43:29.169Z,94.30
2022-12-03T00:45:59.647Z,94.30
2022-12-03T00:48:30.938Z,94.30
2022-12-03T00:51:01.355Z,94.30
2022-12-03T00:53:31.966Z,94.40
2022-12-03T00:56:03.668Z,94.40
2022-12-03T00:58:34.904Z,94.40
2022-12-03T01:01:05.651Z,94.40
2022-12-03T01:03:35.659Z,94.30
2022-12-03T01:06:06.508Z,94.30
2022-12-03T01:08:36.940Z,94.20
2022-12-03T01:11:28.919Z,94.20
2022-12-03T01:13:59.421Z,94.30
2022-12-03T01:16:30.118Z,94.40
2022-12-03T01:19:00.017Z,94.50
2022-12-03T01:21:31.374Z,94.50
2022-12-03T01:24:02.214Z,94.60
2022-12-03T01:26:32.007Z,94.60
2022-12-03T01:29:03.799Z,94.60
2022-12-03T01:31:50.509Z,94.60
2022-12-03T01:34:21.007Z,94.50
2022-12-03T01:36:51.613Z,94.60
2022-12-03T01:39:22.572Z,94.50
2022-12-03T01:41:54.562Z,94.30
2022-12-03T01:44:29.749Z,94.20
2022-12-03T01:47:02.644Z,94.00
2022-12-03T01:49:41.845Z,93.80
2022-12-03T01:52:18.971Z,93.80
2022-12-03T01:55:00.836Z,93.70
2022-12-03T01:57:41.978Z,93.50
2022-12-03T02:00:20.154Z,93.30
2022-12-03T02:03:02.820Z,93.00
2022-12-03T02:05:35.990Z,92.90
2022-12-03T02:08:37.170Z,92.80
2022-12-03T02:11:13.001Z,92.80
2022-12-03T02:13:43.814Z,92.80
2022-12-03T02:16:14.761Z,92.60
2022-12-03T02:18:45.497Z,92.50
2022-12-03T02:21:34.568Z,92.30
2022-12-03T02:24:29.368Z,92.10
2022-12-03T02:26:59.213Z,91.80
2022-12-03T02:29:29.953Z,91.80
2022-12-03T02:31:59.880Z,91.90
2022-12-03T02:34:44.804Z,92.00
2022-12-03T02:37:19.440Z,92.10
2022-12-03T02:39:54.783Z,92.20
2022-12-03T02:42:40.116Z,92.20
2022-12-03T02:45:23.626Z,91.90
2022-12-03T02:48:01.254Z,91.90
2022-12-03T02:50:35.859Z,91.90
2022-12-03T02:53:09.321Z,91.80
2022-12-03T02:55:40.979Z,91.60
2022-12-03T02:58:11.539Z,91.50
2022-12-03T03:00:41.241Z,91.30
2022-12-03T03:03:12.268Z,91.20
2022-12-03T03:05:43.417Z,91.40
2022-12-03T03:08:14.713Z,91.30
2022-12-03T03:10:46.398Z,91.30
2022-12-03T03:13:19.277Z,91.00
2022-12-03T03:15:50.374Z,91.30
2022-12-03T03:18:21.146Z,91.20
2022-12-03T03:20:51.270Z,91.10
2022-12-03T03:23:24.710Z,91.20
2022-12-03T03:26:09.568Z,91.20
2022-12-03T03:28:44.914Z,91.20
2022-12-03T03:31:18.262Z,91.10
2022-12-03T03:33:51.906Z,90.60
2022-12-03T03:36:22.885Z,90.20
2022-12-03T03:38:53.251Z,90.20
2022-12-03T03:41:24.150Z,90.60
2022-12-03T03:43:54.197Z,90.40
2022-12-03T03:46:25.163Z,90.20
2022-12-03T03:48:55.258Z,90.50
2022-12-03T03:51:25.359Z,90.10
2022-12-03T03:53:55.867Z,90.10
2022-12-03T03:56:25.818Z,90.00
2022-12-03T03:58:57.028Z,89.40
2022-12-03T04:01:27.818Z,89.60
2022-12-03T04:03:58.947Z,89.60
2022-12-03T04:06:30.684Z,89.60
2022-12-03T04:09:00.580Z,89.70
2022-12-03T04:11:50.337Z,88.80
2022-12-03T04:14:20.137Z,87.10
2022-12-03T04:16:50.137Z,87.90
2022-12-03T04:19:20.429Z,87.70
2022-12-03T04:22:00.207Z,88.10
2022-12-03T04:24:30.109Z,88.10
2022-12-03T04:27:10.578Z,88.10
2022-12-03T04:29:39.985Z,88.20
2022-12-03T04:32:20.864Z,88.70
2022-12-03T04:35:01.317Z,88.20
2022-12-03T04:37:30.718Z,87.00
2022-12-03T04:40:01.948Z,86.90
2022-12-03T04:42:31.997Z,85.90
2022-12-03T04:45:01.993Z,86.50
2022-12-03T04:47:36.811Z,86.50
2022-12-03T04:50:10.260Z,86.30
2022-12-03T04:52:40.343Z,86.40
2022-12-03T04:55:10.643Z,86.50
2022-12-03T04:57:40.591Z,85.80
2022-12-03T05:00:11.335Z,86.10
2022-12-03T05:02:41.382Z,85.10
2022-12-03T05:05:12.902Z,84.20
2022-12-03T05:07:46.008Z,83.50
2022-12-03T05:10:16.034Z,84.10
2022-12-03T05:12:46.083Z,84.40
2022-12-03T05:15:16.074Z,84.20
2022-12-03T05:17:46.350Z,83.50
2022-12-03T05:20:33.823Z,83.50
2022-12-03T05:23:03.865Z,83.30
2022-12-03T05:25:33.812Z,82.10
2022-12-03T05:28:03.701Z,83.00
2022-12-03T05:30:33.881Z,82.60
2022-12-03T05:33:03.854Z,81.00
2022-12-03T05:35:36.736Z,81.40
2022-12-03T05:38:07.125Z,80.30
2022-12-03T05:40:36.818Z,80.50
2022-12-03T05:43:07.153Z,80.40
2022-12-03T05:45:38.052Z,80.10
2022-12-03T05:48:11.261Z,80.10
2022-12-03T05:50:44.937Z,80.10
2022-12-03T05:53:16.230Z,79.60
2022-12-03T05:55:46.162Z,79.40
2022-12-03T05:58:16.094Z,78.20
2022-12-03T06:00:46.366Z,77.80
2022-12-03T06:03:16.576Z,76.70
2022-12-03T06:05:46.229Z,77.60
2022-12-03T06:08:16.377Z,76.80
2022-12-03T06:10:46.401Z,77.10
2022-12-03T06:13:16.264Z,76.60
2022-12-03T06:15:46.459Z,76.50
2022-12-03T06:18:16.372Z,75.70
2022-12-03T06:20:46.315Z,73.80
2022-12-03T06:23:16.244Z,72.70
2022-12-03T06:25:46.007Z,72.30
2022-12-03T06:28:16.057Z,73.20
2022-12-03T06:30:46.331Z,73.40
2022-12-03T06:33:15.736Z,72.90
2022-12-03T06:35:45.629Z,73.00
2022-12-03T06:38:15.594Z,72.70
2022-12-03T06:40:45.621Z,71.10
2022-12-03T06:43:15.697Z,71.30
2022-12-03T06:45:47.834Z,72.30
2022-12-03T06:48:18.325Z,70.70
2022-12-03T06:50:48.381Z,70.90
2022-12-03T06:53:18.274Z,71.50
2022-12-03T06:55:48.089Z,71.60
2022-12-03T06:58:17.967Z,71.80
2022-12-03T07:00:47.928Z,72.10
2022-12-03T07:03:17.991Z,72.20
2022-12-03T07:05:48.100Z,70.10
2022-12-03T07:08:18.058Z,69.60
2022-12-03T07:10:47.944Z,70.00
2022-12-03T07:13:18.031Z,70.70
2022-12-03T07:15:48.180Z,71.60
2022-12-03T07:18:17.427Z,69.10
2022-12-03T07:20:47.369Z,70.00
2022-12-03T07:23:17.260Z,70.40
2022-12-03T07:25:47.091Z,69.70
2022-12-03T07:28:17.081Z,71.20
2022-12-03T07:30:48.015Z,69.00
2022-12-03T07:33:17.933Z,68.40
2022-12-03T07:35:47.741Z,68.20
2022-12-03T07:38:17.501Z,68.50
2022-12-03T07:40:47.394Z,69.30
2022-12-03T07:43:17.344Z,67.90
2022-12-03T07:45:47.370Z,69.30
2022-12-03T07:48:17.471Z,68.50
2022-12-03T07:50:47.615Z,68.30
2022-12-03T07:53:17.981Z,68.80
2022-12-03T07:55:47.313Z,68.40
2022-12-03T07:58:17.120Z,68.90
2022-12-03T08:00:47.203Z,68.00
2022-12-03T08:03:17.783Z,67.90
2022-12-03T08:05:48.241Z,67.50
2022-12-03T08:08:18.249Z,68.10
2022-12-03T08:10:48.738Z,68.90
2022-12-03T08:13:20.466Z,68.80
2022-12-03T08:15:50.422Z,70.20
2022-12-03T08:18:23.160Z,69.50
2022-12-03T08:20:54.440Z,69.80
2022-12-03T08:23:30.728Z,70.10
2022-12-03T08:26:03.805Z,68.40
2022-12-03T08:28:34.257Z,68.00
2022-12-03T08:31:30.880Z,68.60
2022-12-03T08:34:21.495Z,68.80
2022-12-03T08:36:58.253Z,67.60
2022-12-03T08:39:35.383Z,68.50
2022-12-03T08:42:35.387Z,68.60
2022-12-03T08:45:41.327Z,69.30
2022-12-03T08:48:36.467Z,69.00
2022-12-03T08:51:27.097Z,70.30
2022-12-03T08:54:07.745Z,70.80
2022-12-03T08:56:39.431Z,70.40
2022-12-03T08:59:30.457Z,70.70
2022-12-03T09:02:02.032Z,70.70
2022-12-03T09:04:49.515Z,70.20
2022-12-03T09:07:20.657Z,70.60
2022-12-03T09:10:06.651Z,71.80
2022-12-03T09:12:36.006Z,71.60
2022-12-03T09:15:06.318Z,72.30
2022-12-03T09:17:36.367Z,72.70
2022-12-03T09:20:08.642Z,73.00
2022-12-03T09:22:38.655Z,72.30
2022-12-03T09:25:09.248Z,72.70
2022-12-03T09:27:39.496Z,73.40
2022-12-03T09:30:09.741Z,73.40
2022-12-03T09:32:40.478Z,73.30
2022-12-03T09:35:11.019Z,73.50
2022-12-03T09:37:41.036Z,73.60
2022-12-03T09:40:12.120Z,72.10
2022-12-03T09:42:42.154Z,72.40
2022-12-03T09:45:14.880Z,72.00
2022-12-03T09:47:48.665Z,71.70
2022-12-03T09:50:25.088Z,71.80
2022-12-03T09:52:57.219Z,71.50
2022-12-03T09:55:30.855Z,71.40
2022-12-03T09:58:02.340Z,71.70
2022-12-03T10:00:33.515Z,70.50
2022-12-03T10:03:07.637Z,70.60
2022-12-03T10:05:37.895Z,70.40
2022-12-03T10:08:10.346Z,71.10
2022-12-03T10:10:42.679Z,72.20
2022-12-03T10:13:24.026Z,72.60
2022-12-03T10:15:58.493Z,73.40
2022-12-03T10:18:32.084Z,73.80
2022-12-03T10:21:03.942Z,74.70
2022-12-03T10:23:34.534Z,74.50
2022-12-03T10:26:06.321Z,75.50
2022-12-03T10:28:40.029Z,75.80
2022-12-03T10:31:13.556Z,75.00
2022-12-03T10:33:46.547Z,75.10
2022-12-03T10:36:28.778Z,75.80
2022-12-03T10:39:16.533Z,76.50
2022-12-03T10:41:49.688Z,76.70
2022-12-03T10:44:32.855Z,77.30
2022-12-03T10:47:16.254Z,78.10
2022-12-03T10:49:46.851Z,78.70
2022-12-03T10:52:26.129Z,78.80
2022-12-03T10:54:56.467Z,79.20
2022-12-03T10:57:29.785Z,78.70
2022-12-03T11:00:00.261Z,78.50
2022-12-03T11:02:30.900Z,78.60
2022-12-03T11:05:00.888Z,78.90
2022-12-03T11:07:31.263Z,77.00
2022-12-03T11:10:02.832Z,78.20
2022-12-03T11:12:37.359Z,78.40
2022-12-03T11:15:09.187Z,77.70
2022-12-03T11:17:55.305Z,77.90
2022-12-03T11:21:03.786Z,77.70
2022-12-03T11:24:05.859Z,78.70
2022-12-03T11:27:15.475Z,79.40
2022-12-03T11:29:58.092Z,79.80
2022-12-03T11:32:53.374Z,80.20
2022-12-03T11:35:37.778Z,81.00
2022-12-03T11:38:36.657Z,80.50
2022-12-03T11:41:21.739Z,81.20
2022-12-03T11:44:05.310Z,81.00
2022-12-03T11:46:46.912Z,81.40
2022-12-03T11:49:32.129Z,81.80
2022-12-03T11:52:04.601Z,82.60
2022-12-03T11:54:37.727Z,82.90
2022-12-03T11:57:37.763Z,83.10
2022-12-03T12:00:18.170Z,83.90
2022-12-03T12:02:47.758Z,84.70
2022-12-03T12:05:26.088Z,85.00
2022-12-03T12:07:56.984Z,85.50
2022-12-03T12:10:53.661Z,85.80
2022-12-03T12:14:00.577Z,86.30
2022-12-03T12:16:55.569Z,86.30
2022-12-03T12:19:42.965Z,87.20
2022-12-03T12:22:34.043Z,87.70
2022-12-03T12:25:07.423Z,87.80
2022-12-03T12:27:47.393Z,88.40
2022-12-03T12:30:21.387Z,88.50
2022-12-03T12:32:55.063Z,88.00
2022-12-03T12:35:31.450Z,88.00
2022-12-03T12:38:16.643Z,88.30
2022-12-03T12:40:50.801Z,88.00
2022-12-03T12:43:27.159Z,88.40
2022-12-03T12:46:46.739Z,88.40
2022-12-03T12:49:17.525Z,88.20
2022-12-03T12:51:49.171Z,88.40
2022-12-03T12:54:20.364Z,88.40
2022-12-03T12:56:52.388Z,88.20
2022-12-03T12:59:26.199Z,88.70
2022-12-03T13:01:56.776Z,88.80
2022-12-03T13:04:29.613Z,88.70
2022-12-03T13:06:59.455Z,88.80
2022-12-03T13:09:30.106Z,89.50
2022-12-03T13:12:07.515Z,89.70
2022-12-03T13:14:39.432Z,89.70
2022-12-03T13:17:20.751Z,90.00
2022-12-03T13:19:56.001Z,90.10
2022-12-03T13:22:33.541Z,90.20
2022-12-03T13:25:50.905Z,90.30
2022-12-03T13:28:17.498Z,90.40
2022-12-03T13:30:47.625Z,90.40
2022-12-03T13:33:30.689Z,90.60
2022-12-03T13:36:00.632Z,90.50
2022-12-03T13:38:31.911Z,90.60
2022-12-03T13:41:04.123Z,90.70
2022-12-03T13:43:41.323Z,90.70
2022-12-03T13:46:18.147Z,90.60
2022-12-03T13:48:49.239Z,90.50
2022-12-03T13:51:31.895Z,90.50
2022-12-03T13:54:02.655Z,90.90
2022-12-03T13:56:34.620Z,90.70
2022-12-03T13:59:06.092Z,90.80
2022-12-03T14:01:36.345Z,90.80
2022-12-03T14:04:06.910Z,90.80
2022-12-03T14:06:36.203Z,90.90
2022-12-03T14:09:06.910Z,90.90
2022-12-03T14:11:55.216Z,91.00
2022-12-03T14:14:25.078Z,91.00
2022-12-03T14:16:59.665Z,91.20
2022-12-03T14:19:30.939Z,91.20
2022-12-03T14:22:01.866Z,91.30
2022-12-03T14:24:31.868Z,91.30
2022-12-03T14:27:01.834Z,91.50
2022-12-03T14:29:32.075Z,91.70
2022-12-03T14:32:02.196Z,91.80
2022-12-03T14:34:32.214Z,91.80
2022-12-03T14:37:02.229Z,91.80
2022-12-03T14:39:32.208Z,91.80
2022-12-03T14:42:17.378Z,91.80
2022-12-03T14:44:51.066Z,91.80
2022-12-03T14:47:24.527Z,91.80
2022-12-03T14:49:54.931Z,91.90
2022-12-03T14:52:24.342Z,91.90
2022-12-03T14:54:54.276Z,92.00
2022-12-03T14:57:24.343Z,92.10
2022-12-03T14:59:54.603Z,92.10
2022-12-03T15:02:25.482Z,92.20
2022-12-03T15:04:55.482Z,92.20
2022-12-03T15:07:25.489Z,92.20
2022-12-03T15:09:55.693Z,92.20
2022-12-03T15:12:26.127Z,92.30
2022-12-03T15:14:56.329Z,92.30
2022-12-03T15:17:31.669Z,92.50
2022-12-03T15:20:02.180Z,92.50
2022-12-03T15:22:32.139Z,92.50
2022-12-03T15:25:04.059Z,92.60
2022-12-03T15:27:34.099Z,92.60
2022-12-03T15:30:03.993Z,92.70
2022-12-03T15:32:33.902Z,92.80
2022-12-03T15:35:04.015Z,92.90
2022-12-03T15:37:33.847Z,93.00
2022-12-03T15:40:03.970Z,92.90
2022-12-03T15:42:34.068Z,92.90
2022-12-03T15:45:03.973Z,92.90
2022-12-03T15:47:33.889Z,93.00
2022-12-03T15:50:04.419Z,93.10
2022-12-03T15:52:33.641Z,93.20
2022-12-03T15:55:03.916Z,93.30
2022-12-03T15:57:33.979Z,93.30
2022-12-03T16:00:03.927Z,93.40
2022-12-03T16:02:37.097Z,93.50
2022-12-03T16:05:10.433Z,93.50
2022-12-03T16:07:42.460Z,93.40
2022-12-03T16:10:13.804Z,93.40
2022-12-03T16:12:43.882Z,93.70
2022-12-03T16:15:13.910Z,93.50
2022-12-03T16:17:43.739Z,93.40
2022-12-03T16:20:13.904Z,93.60
2022-12-03T16:22:43.758Z,93.70
2022-12-03T16:25:13.668Z,93.50
2022-12-03T16:27:43.605Z,93.40
2022-12-03T16:30:14.448Z,93.40
2022-12-03T16:32:44.486Z,93.40
2022-12-03T16:35:14.565Z,93.40
2022-12-03T16:37:44.608Z,93.40
2022-12-03T16:40:14.972Z,93.40
2022-12-03T16:42:44.913Z,93.50
2022-12-03T16:45:24.465Z,93.50
2022-12-03T16:47:54.414Z,93.50
2022-12-03T16:50:29.529Z,93.50
2022-12-03T16:53:00.694Z,93.60
2022-12-03T16:55:30.577Z,93.60
2022-12-03T16:58:00.555Z,93.60
2022-12-03T17:00:30.516Z,93.40
2022-12-03T17:03:00.617Z,93.50
2022-12-03T17:05:30.556Z,93.40
2022-12-03T17:08:01.109Z,93.40
2022-12-03T17:10:30.443Z,93.40
2022-12-03T17:13:09.353Z,93.40
2022-12-03T17:15:40.869Z,93.50
2022-12-03T17:18:11.784Z,93.50
2022-12-03T17:20:41.781Z,93.50
2022-12-03T17:23:12.023Z,93.60
2022-12-03T17:25:41.903Z,93.60
2022-12-03T17:28:12.855Z,93.80
2022-12-03T17:30:42.737Z,93.80
2022-12-03T17:33:12.666Z,93.80
2022-12-03T17:35:42.971Z,93.90
2022-12-03T17:38:13.935Z,94.00
2022-12-03T17:40:43.697Z,94.00
2022-12-03T17:43:14.573Z,94.00
2022-12-03T17:45:45.353Z,94.00
2022-12-03T17:48:15.282Z,93.90
2022-12-03T17:50:45.273Z,94.00
2022-12-03T17:53:15.256Z,93.90
2022-12-03T17:55:45.373Z,93.90
2022-12-03T17:58:15.904Z,93.80
2022-12-03T18:00:45.907Z,93.80
2022-12-03T18:03:17.046Z,93.80
2022-12-03T18:05:48.429Z,93.80
2022-12-03T18:08:18.469Z,93.90
2022-12-03T18:10:48.385Z,93.90
2022-12-03T18:13:18.339Z,93.90
2022-12-03T18:15:48.293Z,93.90
2022-12-03T18:18:18.299Z,94.00
2022-12-03T18:20:48.267Z,94.00
2022-12-03T18:23:18.300Z,94.10
2022-12-03T18:25:48.150Z,94.10
2022-12-03T18:28:18.093Z,94.20
2022-12-03T18:30:52.504Z,94.10
2022-12-03T18:33:24.940Z,94.20
2022-12-03T18:35:57.054Z,94.20
2022-12-03T18:38:31.358Z,94.20
2022-12-03T18:41:02.330Z,94.30
2022-12-03T18:43:32.739Z,94.40
2022-12-03T18:46:02.726Z,94.30
2022-12-03T18:48:32.565Z,94.70
2022-12-03T18:51:03.321Z,94.50
2022-12-03T18:53:33.178Z,94.50
2022-12-03T18:56:03.102Z,94.40
2022-12-03T18:58:32.989Z,94.30
2022-12-03T19:01:02.924Z,94.40
2022-12-03T19:03:33.292Z,94.50
2022-12-03T19:06:03.344Z,94.40
2022-12-03T19:08:33.326Z,94.30
2022-12-03T19:11:03.283Z,94.30
2022-12-03T19:13:33.337Z,94.40
2022-12-03T19:16:07.592Z,94.40
2022-12-03T19:18:38.091Z,94.30
2022-12-03T19:21:10.988Z,94.20
2022-12-03T19:23:44.591Z,94.30
2022-12-03T19:26:24.424Z,94.40
2022-12-03T19:28:55.557Z,94.50
2022-12-03T19:31:25.625Z,94.50
2022-12-03T19:33:56.080Z,94.50
2022-12-03T19:36:30.109Z,94.50
2022-12-03T19:39:01.852Z,94.50
2022-12-03T19:41:32.905Z,94.40
2022-12-03T19:44:09.265Z,94.30
2022-12-03T19:46:40.761Z,94.30
2022-12-03T19:49:10.960Z,94.30
2022-12-03T19:51:40.975Z,94.30
2022-12-03T19:54:13.245Z,94.30
2022-12-03T19:56:43.073Z,94.30
2022-12-03T19:59:16.246Z,94.30
2022-12-03T20:01:46.172Z,94.30
2022-12-03T20:04:16.097Z,94.30
2022-12-03T20:06:47.131Z,94.30
2022-12-03T20:09:19.383Z,94.40
2022-12-03T20:11:51.902Z,94.40
2022-12-03T20:14:22.227Z,94.40
2022-12-03T20:16:52.414Z,94.50
2022-12-03T20:19:22.373Z,94.60
2022-12-03T20:21:52.226Z,94.60
2022-12-03T20:24:22.232Z,94.60
2022-12-03T20:26:52.258Z,94.60
2022-12-03T20:29:22.285Z,94.70
2022-12-03T20:31:52.195Z,94.70
2022-12-03T20:34:22.085Z,94.80
2022-12-03T20:36:51.972Z,94.80
2022-12-03T20:39:21.798Z,94.80
2022-12-03T20:41:51.702Z,94.80
2022-12-03T20:44:21.749Z,94.70
2022-12-03T20:46:51.565Z,94.70
2022-12-03T20:49:21.643Z,94.70
2022-12-03T20:51:52.518Z,94.70
2022-12-03T20:54:22.521Z,94.70
2022-12-03T20:56:52.432Z,94.60
2022-12-03T20:59:22.390Z,94.70
2022-12-03T21:01:52.384Z,94.60
2022-12-03T21:04:22.284Z,94.60
2022-12-03T21:06:52.192Z,94.70
2022-12-03T21:09:22.118Z,94.60
2022-12-03T21:11:51.918Z,94.60
2022-12-03T21:14:21.762Z,94.60
2022-12-03T21:17:07.855Z,94.60
2022-12-03T21:19:39.578Z,94.40
2022-12-03T21:22:09.664Z,94.50
2022-12-03T21:24:39.865Z,94.60
2022-12-03T21:27:09.762Z,94.60
2022-12-03T21:29:39.784Z,94.50
2022-12-03T21:32:09.803Z,94.40
2022-12-03T21:34:39.712Z,94.40
2022-12-03T21:37:09.730Z,94.60
2022-12-03T21:39:39.665Z,94.60
2022-12-03T21:42:22.051Z,94.60
2022-12-03T21:45:00.095Z,94.50
2022-12-03T21:47:43.618Z,94.60
2022-12-03T21:50:14.282Z,94.60
2022-12-03T21:52:44.829Z,94.70
2022-12-03T21:55:15.288Z,94.80
2022-12-03T21:58:04.984Z,94.80
2022-12-03T22:00:55.086Z,94.80
2022-12-03T22:03:25.581Z,94.80
2022-12-03T22:05:56.060Z,94.80
2022-12-03T22:08:26.417Z,94.80
2022-12-03T22:11:17.295Z,94.80
2022-12-03T22:13:48.432Z,94.70
2022-12-03T22:16:21.685Z,94.70
2022-12-03T22:18:52.716Z,94.80
2022-12-03T22:21:23.938Z,94.80
2022-12-03T22:23:54.500Z,94.80
2022-12-03T22:26:55.029Z,94.70
2022-12-03T22:29:56.172Z,94.80
2022-12-03T22:32:26.794Z,94.70
2022-12-03T22:34:57.161Z,94.70
2022-12-03T22:37:27.648Z,94.70
2022-12-03T22:39:58.133Z,94.70
2022-12-03T22:42:28.503Z,94.80
2022-12-03T22:44:58.822Z,94.70
2022-12-03T22:50:26.338Z,94.80
2022-12-03T22:52:56.739Z,94.80
2022-12-03T22:55:38.120Z,94.90
2022-12-03T23:04:04.948Z,94.90
2022-12-03T23:06:48.888Z,94.80
2022-12-03T23:09:37.575Z,94.80
2022-12-03T23:12:19.179Z,94.80
2022-12-03T23:14:59.395Z,94.90
2022-12-03T23:20:44.270Z,94.80
2022-12-03T23:23:15.095Z,94.90
2022-12-03T23:29:00.163Z,94.80
2022-12-03T23:31:49.583Z,94.80
2022-12-03T23:34:20.032Z,95.00
2022-12-03T23:37:00.938Z,94.80
2022-12-03T23:42:49.660Z,95.00
2022-12-03T23:48:18.089Z,94.90
2022-12-03T23:51:00.022Z,94.90
2022-12-03T23:53:40.967Z,94.80
2022-12-03T23:56:13.655Z,94.50
2022-12-03T23:59:00.529Z,94.40
